Time;durP1;ratioP1;P1;durP2;ratioP2;P2;SDS_P1;SDS_P2;PMS_P1;PMS_P2;Temp;Humidity;BMP_temperature;BMP_pressure;BME280_temperature;BME280_humidity;BME280_pressure;Samples;Min_cycle;Max_cycle;Signal;HPM_P1;HPM_P2
2021/03/16 00:01:17;;;;;;;8.65;4.70;;;5.00;80.00;;;;;;5027561;28;20036;-89
2021/03/16 00:03:43;;;;;;;12.23;5.25;;;5.00;79.90;;;;;;5025960;28;20029;-89
2021/03/16 00:06:09;;;;;;;11.68;5.63;;;5.00;80.40;;;;;;5024016;28;20099;-89
2021/03/16 00:08:34;;;;;;;6.70;4.72;;;5.00;79.80;;;;;;5026616;28;20075;-90
2021/03/16 00:11:00;;;;;;;9.95;5.13;;;5.00;79.80;;;;;;5024611;28;20033;-90
2021/03/16 00:13:25;;;;;;;9.85;4.88;;;5.00;79.70;;;;;;5034225;28;20033;-90
2021/03/16 00:15:51;;;;;;;11.07;5.22;;;5.00;79.90;;;;;;5037899;28;20095;-89
2021/03/16 00:18:18;;;;;;;13.10;5.50;;;5.00;79.90;;;;;;5057315;28;20032;-89
2021/03/16 00:20:44;;;;;;;12.18;6.15;;;5.00;79.80;;;;;;5003819;28;20121;-90
2021/03/16 00:23:11;;;;;;;13.80;5.85;;;5.00;79.90;;;;;;5002914;28;20026;-90
2021/03/16 00:25:37;;;;;;;12.00;5.32;;;4.90;79.90;;;;;;5025659;28;20105;-89
2021/03/16 00:28:04;;;;;;;18.70;5.72;;;4.90;79.90;;;;;;5026831;28;20033;-89
2021/03/16 00:30:30;;;;;;;14.13;6.18;;;4.90;80.00;;;;;;5027997;28;20151;-90
2021/03/16 00:32:55;;;;;;;9.73;5.50;;;4.90;79.90;;;;;;5033244;28;20034;-89
2021/03/16 00:35:21;;;;;;;13.63;5.85;;;4.90;79.90;;;;;;5031658;28;20040;-89
2021/03/16 00:37:47;;;;;;;11.70;5.22;;;4.90;79.90;;;;;;5023337;28;20029;-90
2021/03/16 00:40:13;;;;;;;14.15;5.03;;;4.90;80.00;;;;;;5016271;28;20025;-89
2021/03/16 00:42:39;;;;;;;11.50;5.85;;;4.90;80.00;;;;;;5016966;28;20495;-89
2021/03/16 00:45:06;;;;;;;14.70;5.22;;;4.90;79.90;;;;;;5020043;28;20152;-89
2021/03/16 00:47:32;;;;;;;14.55;5.53;;;4.90;80.00;;;;;;5034948;28;20033;-89
2021/03/16 00:49:58;;;;;;;13.38;5.43;;;4.80;79.90;;;;;;5017535;28;20044;-89
2021/03/16 00:52:23;;;;;;;15.35;5.20;;;4.80;80.00;;;;;;4997531;28;20030;-88
2021/03/16 00:54:49;;;;;;;13.27;5.25;;;4.80;80.10;;;;;;5013506;28;20021;-89
2021/03/16 00:57:14;;;;;;;11.40;4.65;;;4.80;80.00;;;;;;5029443;28;20032;-89
2021/03/16 00:59:40;;;;;;;12.35;5.40;;;4.80;80.10;;;;;;5024233;28;20071;-90
2021/03/16 01:02:07;;;;;;;12.68;5.70;;;4.80;80.60;;;;;;5016678;28;20387;-89
2021/03/16 01:04:33;;;;;;;12.20;4.40;;;4.80;80.00;;;;;;5028362;28;20487;-89
2021/03/16 01:06:58;;;;;;;9.45;4.53;;;4.80;80.00;;;;;;5034870;28;20033;-89
2021/03/16 01:09:24;;;;;;;10.07;4.82;;;4.80;80.10;;;;;;5035751;28;20033;-90
2021/03/16 01:11:49;;;;;;;12.18;5.28;;;4.80;80.10;;;;;;5002862;28;20092;-89
2021/03/16 01:14:15;;;;;;;13.73;5.03;;;4.70;80.10;;;;;;5015179;28;20433;-89
2021/03/16 01:16:41;;;;;;;8.90;4.32;;;4.70;80.00;;;;;;5040825;28;20494;-90
2021/03/16 01:19:06;;;;;;;13.52;4.47;;;4.80;80.10;;;;;;5018193;28;20032;-90
2021/03/16 01:21:32;;;;;;;11.73;4.60;;;4.70;80.00;;;;;;5022322;28;20087;-89
2021/03/16 01:23:58;;;;;;;13.23;4.85;;;4.70;79.80;;;;;;5018003;28;20033;-90
2021/03/16 01:26:23;;;;;;;15.05;4.50;;;4.80;79.90;;;;;;5024911;28;20448;-90
2021/03/16 01:28:49;;;;;;;10.88;4.88;;;4.70;79.80;;;;;;5018184;28;20030;-89
2021/03/16 01:31:15;;;;;;;11.43;4.38;;;4.70;79.90;;;;;;5021762;28;20032;-90
2021/03/16 01:33:40;;;;;;;14.80;4.70;;;4.70;79.80;;;;;;5022806;28;20025;-89
2021/03/16 01:36:06;;;;;;;11.43;4.60;;;4.70;79.90;;;;;;5017572;28;20554;-90
2021/03/16 01:38:31;;;;;;;7.90;4.13;;;4.70;79.90;;;;;;5016574;28;20033;-90
2021/03/16 01:40:57;;;;;;;10.77;4.60;;;4.70;79.90;;;;;;5016338;28;20031;-89
2021/03/16 01:43:29;;;;;;;15.13;4.82;;;4.70;79.90;;;;;;5017830;28;20032;-90
2021/03/16 01:45:56;;;;;;;12.13;5.05;;;4.70;80.00;;;;;;5033955;28;20182;-89
2021/03/16 01:48:25;;;;;;;15.13;4.55;;;4.60;79.80;;;;;;5021268;28;20033;-89
2021/03/16 01:50:50;;;;;;;13.13;4.07;;;4.60;79.80;;;;;;5017145;28;20512;-90
2021/03/16 01:53:17;;;;;;;9.25;4.60;;;4.60;79.90;;;;;;5036428;28;20109;-90
2021/03/16 01:55:43;;;;;;;12.63;5.00;;;4.60;79.80;;;;;;5027185;28;20113;-90
2021/03/16 01:58:09;;;;;;;12.90;5.65;;;4.60;79.80;;;;;;5024218;28;20443;-89
2021/03/16 02:00:40;;;;;;;14.93;4.60;;;4.60;79.90;;;;;;5016084;28;20044;-89
2021/03/16 02:03:10;;;;;;;13.10;5.25;;;4.60;79.90;;;;;;4999155;28;20468;-89
2021/03/16 02:05:37;;;;;;;9.75;4.57;;;4.50;80.00;;;;;;5018278;28;20037;-90
2021/03/16 02:08:19;;;;;;;17.70;4.50;;;4.50;80.00;;;;;;5023955;28;20117;-90
2021/03/16 02:11:26;;;;;;;12.30;4.65;;;4.50;79.80;;;;;;5020246;28;20030;-90
2021/03/16 02:14:00;;;;;;;11.43;4.35;;;4.50;79.90;;;;;;4996406;28;20092;-90
2021/03/16 02:16:36;;;;;;;12.05;4.30;;;4.50;80.00;;;;;;5034633;28;20406;-90
2021/03/16 02:19:08;;;;;;;9.52;4.65;;;4.50;80.10;;;;;;5033402;28;20063;-90
2021/03/16 02:21:35;;;;;;;11.52;4.60;;;4.50;80.10;;;;;;5009198;28;20036;-89
2021/03/16 02:24:18;;;;;;;13.07;3.75;;;4.50;80.00;;;;;;4995440;28;20113;-90
2021/03/16 02:27:16;;;;;;;10.07;3.60;;;4.50;79.90;;;;;;5020067;28;20036;-89
2021/03/16 02:29:48;;;;;;;12.18;4.65;;;4.50;79.60;;;;;;5015640;28;20026;-90
2021/03/16 02:32:20;;;;;;;14.13;4.55;;;4.50;79.60;;;;;;5007359;28;20555;-90
2021/03/16 02:34:50;;;;;;;13.10;4.80;;;4.50;79.80;;;;;;4996111;28;20047;-89
2021/03/16 02:37:17;;;;;;;11.85;3.83;;;4.50;79.70;;;;;;5027078;28;20086;-91
2021/03/16 02:39:43;;;;;;;8.73;3.58;;;4.50;79.80;;;;;;5022367;28;20460;-90
2021/03/16 02:42:11;;;;;;;14.52;4.38;;;4.50;79.90;;;;;;5002637;28;20103;-90
2021/03/16 02:44:38;;;;;;;10.50;3.83;;;4.50;79.80;;;;;;5028401;28;20033;-90
2021/03/16 02:47:04;;;;;;;11.27;4.03;;;4.50;79.60;;;;;;5032046;28;20514;-90
2021/03/16 02:49:35;;;;;;;18.45;5.07;;;4.50;79.60;;;;;;5024262;28;20518;-90
2021/03/16 02:52:02;;;;;;;12.70;3.78;;;4.50;79.70;;;;;;5021153;28;20057;-90
2021/03/16 02:54:29;;;;;;;10.40;3.63;;;4.60;79.80;;;;;;5004388;28;20034;-89
2021/03/16 02:56:56;;;;;;;12.77;3.42;;;4.60;79.70;;;;;;5022922;28;20063;-90
2021/03/16 02:59:23;;;;;;;10.32;3.72;;;4.60;79.60;;;;;;5019955;28;20022;-90
2021/03/16 03:01:50;;;;;;;15.07;3.67;;;4.50;79.60;;;;;;5013212;28;20025;-90
2021/03/16 03:04:16;;;;;;;7.00;3.40;;;4.50;79.50;;;;;;5013451;28;20021;-89
2021/03/16 03:06:43;;;;;;;10.25;4.13;;;4.50;79.40;;;;;;5015545;28;20032;-90
2021/03/16 03:09:11;;;;;;;9.60;3.53;;;4.50;79.40;;;;;;5034462;28;20387;-89
2021/03/16 03:11:37;;;;;;;9.60;3.72;;;4.50;79.50;;;;;;5017475;28;20029;-89
2021/03/16 03:14:08;;;;;;;8.98;3.70;;;4.40;79.60;;;;;;5022490;28;20048;-90
2021/03/16 03:16:33;;;;;;;9.88;3.90;;;4.40;79.70;;;;;;5032636;28;20034;-89
2021/03/16 03:19:00;;;;;;;9.10;4.00;;;4.40;79.60;;;;;;5033628;28;20033;-89
2021/03/16 03:21:31;;;;;;;12.55;4.03;;;4.40;79.70;;;;;;5020566;28;20025;-89
2021/03/16 03:24:05;;;;;;;6.70;3.17;;;4.40;79.90;;;;;;5018418;28;20513;-89
2021/03/16 03:26:36;;;;;;;15.20;4.22;;;4.40;80.00;;;;;;5017138;28;20034;-90
2021/03/16 03:29:03;;;;;;;12.35;3.97;;;4.40;80.00;;;;;;5018476;28;20403;-90
2021/03/16 03:31:31;;;;;;;10.65;3.55;;;4.40;79.90;;;;;;5032325;28;20031;-89
2021/03/16 03:33:58;;;;;;;8.10;4.00;;;4.40;79.90;;;;;;5018816;28;20033;-89
2021/03/16 03:36:24;;;;;;;10.75;4.15;;;4.50;80.00;;;;;;5022085;28;20434;-89
2021/03/16 03:38:53;;;;;;;11.35;4.10;;;4.50;79.80;;;;;;5028881;28;20025;-89
2021/03/16 03:41:24;;;;;;;14.60;4.50;;;4.40;79.80;;;;;;5004477;28;20480;-89
2021/03/16 03:43:50;;;;;;;10.85;4.35;;;4.40;79.90;;;;;;5004134;28;20030;-90
2021/03/16 03:46:16;;;;;;;15.80;5.43;;;4.40;79.80;;;;;;5032493;28;20747;-90
2021/03/16 03:48:44;;;;;;;13.90;5.10;;;4.40;80.10;;;;;;5032557;28;20028;-89
2021/03/16 03:51:11;;;;;;;8.38;4.78;;;4.40;80.00;;;;;;5025047;28;20059;-89
2021/03/16 03:53:39;;;;;;;11.35;4.18;;;4.40;79.90;;;;;;5017521;28;20033;-89
2021/03/16 03:56:07;;;;;;;14.30;5.40;;;4.40;80.00;;;;;;5021888;28;20017;-90
2021/03/16 03:58:37;;;;;;;11.75;4.22;;;4.40;80.20;;;;;;5020306;28;20067;-90
2021/03/16 04:01:04;;;;;;;10.82;4.40;;;4.30;80.10;;;;;;5011046;28;20030;-89
2021/03/16 04:03:30;;;;;;;12.10;4.60;;;4.30;80.10;;;;;;5010411;28;20472;-89
2021/03/16 04:05:56;;;;;;;11.27;4.25;;;4.30;80.10;;;;;;5004724;28;20036;-89
2021/03/16 04:08:22;;;;;;;9.35;4.50;;;4.30;80.20;;;;;;5028521;28;20021;-89
2021/03/16 04:10:48;;;;;;;10.45;3.67;;;4.30;80.20;;;;;;5031632;28;20040;-90
2021/03/16 04:13:13;;;;;;;10.73;4.05;;;4.30;80.20;;;;;;5013132;28;20391;-89
2021/03/16 04:15:40;;;;;;;11.50;4.20;;;4.40;80.20;;;;;;5015486;28;20119;-89
2021/03/16 04:18:06;;;;;;;12.25;4.28;;;4.30;80.00;;;;;;5033289;28;20053;-89
2021/03/16 04:20:32;;;;;;;10.10;3.90;;;4.30;80.10;;;;;;5018188;28;20021;-89
2021/03/16 04:22:57;;;;;;;12.75;4.28;;;4.30;80.20;;;;;;5019063;28;20142;-89
2021/03/16 04:25:23;;;;;;;7.30;3.35;;;4.30;80.20;;;;;;5027054;28;20036;-89
2021/03/16 04:27:49;;;;;;;8.40;3.70;;;4.30;80.10;;;;;;5017761;28;20510;-89
2021/03/16 04:30:15;;;;;;;11.40;3.42;;;4.30;80.10;;;;;;5038851;28;20025;-89
2021/03/16 04:32:40;;;;;;;10.68;3.83;;;4.30;80.20;;;;;;5025199;28;20055;-89
2021/03/16 04:35:07;;;;;;;12.85;3.90;;;4.20;80.20;;;;;;5078652;22;20041;-86
2021/03/16 04:37:32;;;;;;;8.80;3.47;;;4.30;80.30;;;;;;5051150;28;20036;-86
2021/03/16 04:39:58;;;;;;;9.55;3.80;;;4.30;80.30;;;;;;5028038;28;20021;-86
2021/03/16 04:42:23;;;;;;;12.60;3.83;;;4.30;80.30;;;;;;5036296;28;20084;-88
2021/03/16 04:44:49;;;;;;;13.55;4.90;;;4.30;80.20;;;;;;5023028;28;20395;-88
2021/03/16 04:47:14;;;;;;;11.77;4.28;;;4.30;80.70;;;;;;5014750;28;20108;-87
2021/03/16 04:49:40;;;;;;;9.23;4.20;;;4.30;80.20;;;;;;5019139;28;20031;-85
2021/03/16 04:52:06;;;;;;;6.38;3.75;;;4.30;80.40;;;;;;5005076;28;20159;-88
2021/03/16 04:54:31;;;;;;;13.00;4.10;;;4.30;80.40;;;;;;5020887;28;20071;-87
2021/03/16 04:56:57;;;;;;;11.27;4.57;;;4.30;80.30;;;;;;5039340;28;20017;-88
2021/03/16 04:59:22;;;;;;;9.30;3.88;;;4.30;80.30;;;;;;5031019;28;20514;-88
2021/03/16 05:01:48;;;;;;;8.57;3.95;;;4.30;80.20;;;;;;5012239;28;20037;-88
2021/03/16 05:04:14;;;;;;;11.88;5.13;;;4.30;80.20;;;;;;4999337;28;20117;-88
2021/03/16 05:06:39;;;;;;;11.40;4.65;;;4.30;80.30;;;;;;5009843;28;20490;-87
2021/03/16 05:09:05;;;;;;;13.05;4.30;;;4.30;80.20;;;;;;5021547;28;20110;-88
2021/03/16 05:11:35;;;;;;;15.63;4.68;;;4.30;80.30;;;;;;5016560;28;20121;-88
2021/03/16 05:14:01;;;;;;;8.40;4.32;;;4.30;80.20;;;;;;4998615;28;20029;-85
2021/03/16 05:16:26;;;;;;;10.52;4.88;;;4.30;80.20;;;;;;4999022;28;20033;-85
2021/03/16 05:18:52;;;;;;;11.73;4.55;;;4.30;80.30;;;;;;5029295;28;20030;-87
2021/03/16 05:21:17;;;;;;;16.25;4.88;;;4.30;80.20;;;;;;5018344;28;20101;-85
2021/03/16 05:23:43;;;;;;;16.00;6.07;;;4.30;80.40;;;;;;5009229;28;20368;-86
2021/03/16 05:26:08;;;;;;;15.75;4.60;;;4.30;80.40;;;;;;5021761;28;20108;-87
2021/03/16 05:28:34;;;;;;;15.80;5.22;;;4.20;80.30;;;;;;5018349;28;20044;-87
2021/03/16 05:31:00;;;;;;;15.98;5.97;;;4.30;80.50;;;;;;5022090;28;20053;-87
2021/03/16 05:33:25;;;;;;;16.23;5.07;;;4.20;80.50;;;;;;5038211;28;20018;-87
2021/03/16 05:35:51;;;;;;;11.95;4.82;;;4.20;80.50;;;;;;5034146;28;20076;-87
2021/03/16 05:38:17;;;;;;;13.32;5.45;;;4.20;80.60;;;;;;5007103;28;20018;-87
2021/03/16 05:40:43;;;;;;;11.18;5.68;;;4.30;81.10;;;;;;5004713;28;20021;-87
2021/03/16 05:43:10;;;;;;;15.10;4.97;;;4.20;80.60;;;;;;5000762;28;20117;-87
2021/03/16 05:45:38;;;;;;;14.07;5.00;;;4.20;80.60;;;;;;5014139;28;20060;-85
2021/03/16 05:48:05;;;;;;;14.73;5.22;;;4.20;80.70;;;;;;5018394;28;20033;-87
2021/03/16 05:50:31;;;;;;;14.80;4.93;;;4.20;80.60;;;;;;5004603;28;20022;-85
2021/03/16 05:53:00;;;;;;;12.38;4.75;;;4.20;80.70;;;;;;5017798;28;20022;-87
2021/03/16 05:55:27;;;;;;;10.80;4.70;;;4.20;80.80;;;;;;5025240;28;20032;-85
2021/03/16 05:57:52;;;;;;;13.05;5.07;;;4.20;80.70;;;;;;5041890;28;20062;-86
2021/03/16 06:00:19;;;;;;;14.30;5.43;;;4.20;80.70;;;;;;5005425;28;20013;-87
2021/03/16 06:02:44;;;;;;;13.73;5.28;;;4.30;80.70;;;;;;5019560;28;20026;-85
2021/03/16 06:05:11;;;;;;;13.38;4.82;;;4.30;80.70;;;;;;5014582;28;20033;-84
2021/03/16 06:07:37;;;;;;;16.05;4.93;;;4.20;80.80;;;;;;5024546;28;20029;-83
2021/03/16 06:10:03;;;;;;;15.68;4.85;;;4.20;80.70;;;;;;5016337;28;20028;-87
2021/03/16 06:12:34;;;;;;;9.00;5.30;;;4.20;80.80;;;;;;5016555;28;20128;-84
2021/03/16 06:15:13;;;;;;;9.73;4.63;;;4.20;80.90;;;;;;5016642;28;20033;-87
2021/03/16 06:17:46;;;;;;;14.05;5.38;;;4.30;80.80;;;;;;5029444;28;20074;-87
2021/03/16 06:20:24;;;;;;;10.60;4.43;;;4.30;80.90;;;;;;5038952;28;20020;-85
2021/03/16 06:23:01;;;;;;;15.75;5.00;;;4.30;80.80;;;;;;5001525;28;20053;-85
2021/03/16 06:25:35;;;;;;;14.30;5.38;;;4.30;80.80;;;;;;4999831;28;20498;-86
2021/03/16 06:28:09;;;;;;;11.65;5.03;;;4.30;80.90;;;;;;5011502;28;20121;-88
2021/03/16 06:30:34;;;;;;;13.10;4.60;;;4.30;80.80;;;;;;5010288;28;20061;-87
2021/03/16 06:33:01;;;;;;;10.20;4.30;;;4.30;80.80;;;;;;5001344;28;20038;-87
2021/03/16 06:35:27;;;;;;;11.57;4.65;;;4.30;80.80;;;;;;4999773;28;20041;-87
2021/03/16 06:38:08;;;;;;;15.88;5.75;;;4.30;80.70;;;;;;5006032;28;20064;-86
2021/03/16 06:40:34;;;;;;;9.82;5.18;;;4.40;80.70;;;;;;5016148;28;20561;-87
2021/03/16 06:43:05;;;;;;;16.05;7.10;;;4.40;80.50;;;;;;5016893;28;20041;-86
2021/03/16 06:45:32;;;;;;;12.70;4.75;;;4.40;80.60;;;;;;5014558;28;20506;-86
2021/03/16 06:47:59;;;;;;;10.05;5.40;;;4.40;80.60;;;;;;5031210;28;20104;-86
2021/03/16 06:50:29;;;;;;;18.58;5.35;;;4.40;80.50;;;;;;5014630;28;20029;-87
2021/03/16 06:52:57;;;;;;;11.75;5.35;;;4.50;80.60;;;;;;5024945;28;20135;-87
2021/03/16 06:55:23;;;;;;;12.23;5.47;;;4.50;80.60;;;;;;5016673;28;20025;-87
2021/03/16 06:57:48;;;;;;;11.80;6.60;;;4.50;80.60;;;;;;5018399;28;20036;-87
2021/03/16 07:00:15;;;;;;;13.63;5.70;;;4.50;80.50;;;;;;5030504;28;20031;-85
2021/03/16 07:02:40;;;;;;;15.48;5.28;;;4.50;80.40;;;;;;5033223;28;20045;-85
2021/03/16 07:05:07;;;;;;;13.70;5.70;;;4.60;80.50;;;;;;5021868;28;20037;-86
2021/03/16 07:07:33;;;;;;;14.68;5.72;;;4.60;80.50;;;;;;5016597;28;20030;-85
2021/03/16 07:10:05;;;;;;;11.80;5.07;;;4.60;80.50;;;;;;5041587;28;20032;-85
2021/03/16 07:12:34;;;;;;;14.45;5.50;;;4.70;80.30;;;;;;5010569;28;20036;-85
2021/03/16 07:15:01;;;;;;;11.07;5.03;;;4.70;80.10;;;;;;5028749;28;20021;-85
2021/03/16 07:17:32;;;;;;;15.25;5.45;;;4.70;80.20;;;;;;5028910;28;20071;-85
2021/03/16 07:20:07;;;;;;;13.43;4.90;;;4.70;80.10;;;;;;5024509;28;20029;-85
2021/03/16 07:22:37;;;;;;;13.20;5.47;;;4.80;79.90;;;;;;5025629;28;20034;-84
2021/03/16 07:25:09;;;;;;;16.60;5.97;;;4.80;80.00;;;;;;5040738;28;20040;-84
2021/03/16 07:27:36;;;;;;;15.85;5.90;;;4.80;79.90;;;;;;5042464;28;20032;-84
2021/03/16 07:30:03;;;;;;;17.80;4.47;;;4.80;80.00;;;;;;5026224;28;20032;-85
2021/03/16 07:32:30;;;;;;;12.30;4.35;;;4.80;79.90;;;;;;5024166;28;20360;-85
2021/03/16 07:35:00;;;;;;;18.60;5.95;;;4.80;79.90;;;;;;5022853;28;20087;-85
2021/03/16 07:37:28;;;;;;;14.85;4.70;;;4.90;79.80;;;;;;5042424;28;20079;-85
2021/03/16 07:39:54;;;;;;;13.65;4.68;;;4.90;79.60;;;;;;5000458;28;20018;-85
2021/03/16 07:42:20;;;;;;;10.75;4.53;;;4.90;79.70;;;;;;5004680;28;20101;-85
2021/03/16 07:44:46;;;;;;;9.80;4.70;;;5.00;79.70;;;;;;5010303;28;20045;-84
2021/03/16 07:47:11;;;;;;;14.43;4.13;;;5.10;79.70;;;;;;5009737;28;20501;-85
2021/03/16 07:49:40;;;;;;;12.43;5.35;;;5.10;79.40;;;;;;5028587;28;20038;-85
2021/03/16 07:52:26;;;;;;;10.82;4.45;;;5.00;79.30;;;;;;5027507;28;20029;-85
2021/03/16 07:54:54;;;;;;;14.93;4.93;;;5.00;79.60;;;;;;5013007;28;20029;-85
2021/03/16 07:57:29;;;;;;;14.07;4.70;;;5.00;79.60;;;;;;5022489;28;20420;-85
2021/03/16 08:00:05;;;;;;;12.32;4.60;;;5.00;79.40;;;;;;5012003;28;20049;-85
2021/03/16 08:02:33;;;;;;;12.73;4.55;;;5.00;79.50;;;;;;5021268;28;20034;-85
2021/03/16 08:04:59;;;;;;;9.07;4.70;;;5.00;79.50;;;;;;5023080;28;20120;-84
2021/03/16 08:07:30;;;;;;;12.00;4.60;;;5.10;79.60;;;;;;5021508;28;20026;-85
2021/03/16 08:09:57;;;;;;;9.18;4.13;;;5.10;79.60;;;;;;5021237;28;20472;-85
2021/03/16 08:12:31;;;;;;;12.02;4.15;;;5.20;79.40;;;;;;5023106;28;20057;-86
2021/03/16 08:15:08;;;;;;;12.25;3.58;;;5.20;78.80;;;;;;5008229;28;20034;-87
2021/03/16 08:17:35;;;;;;;14.65;4.20;;;5.20;78.50;;;;;;5026253;28;20052;-86
2021/03/16 08:20:02;;;;;;;14.00;4.55;;;5.20;78.50;;;;;;5027275;28;20022;-87
2021/03/16 08:22:29;;;;;;;13.88;3.85;;;5.20;78.40;;;;;;5010384;28;20026;-85
2021/03/16 08:25:06;;;;;;;10.65;3.45;;;5.30;78.20;;;;;;5012227;28;20038;-87
2021/03/16 08:27:36;;;;;;;9.20;3.30;;;5.30;78.10;;;;;;5032348;28;20033;-86
2021/03/16 08:30:07;;;;;;;11.57;3.42;;;5.30;78.10;;;;;;5027444;28;20057;-87
2021/03/16 08:32:34;;;;;;;9.13;3.05;;;5.30;77.70;;;;;;5044107;28;20032;-87
2021/03/16 08:34:59;;;;;;;4.90;3.05;;;5.40;77.90;;;;;;5016092;28;20036;-86
2021/03/16 08:37:33;;;;;;;10.32;3.58;;;5.40;77.70;;;;;;5019896;28;20112;-86
2021/03/16 08:40:00;;;;;;;11.63;3.58;;;5.50;77.70;;;;;;5004336;28;20105;-87
2021/03/16 08:42:27;;;;;;;6.88;3.47;;;5.60;77.30;;;;;;5017157;28;20049;-87
2021/03/16 08:44:54;;;;;;;6.95;3.22;;;5.60;77.40;;;;;;5023233;28;20112;-87
2021/03/16 08:47:25;;;;;;;8.38;3.50;;;5.70;77.30;;;;;;5024183;28;20025;-86
2021/03/16 08:49:53;;;;;;;13.55;3.42;;;5.80;77.00;;;;;;5024442;28;20026;-87
2021/03/16 08:52:22;;;;;;;5.40;2.80;;;5.80;76.80;;;;;;5023293;28;20387;-86
2021/03/16 08:54:49;;;;;;;9.85;2.95;;;5.90;76.90;;;;;;5022431;28;20468;-87
2021/03/16 08:57:23;;;;;;;12.57;3.90;;;6.10;76.50;;;;;;5040654;28;20365;-87
2021/03/16 08:59:50;;;;;;;8.68;2.65;;;6.20;76.30;;;;;;5023281;28;20467;-87
2021/03/16 09:02:24;;;;;;;11.20;3.00;;;6.20;76.10;;;;;;5021704;28;20032;-86
2021/03/16 09:04:50;;;;;;;7.35;2.45;;;6.30;75.50;;;;;;5022463;28;20025;-87
2021/03/16 09:07:24;;;;;;;8.00;2.72;;;6.50;75.70;;;;;;5013988;28;20112;-86
2021/03/16 09:09:50;;;;;;;13.45;2.90;;;6.50;75.50;;;;;;5001831;28;20094;-87
2021/03/16 09:12:29;;;;;;;9.38;2.72;;;6.60;75.10;;;;;;5018329;28;20471;-87
2021/03/16 09:15:07;;;;;;;11.30;3.85;;;6.60;74.80;;;;;;5043518;28;20036;-86
2021/03/16 09:17:38;;;;;;;8.13;2.83;;;6.50;74.20;;;;;;5020005;28;20032;-87
2021/03/16 09:20:38;;;;;;;14.48;3.67;;;6.40;74.40;;;;;;5020122;28;20029;-86
2021/03/16 09:23:10;;;;;;;11.52;5.47;;;6.40;74.70;;;;;;5036777;28;20500;-86
2021/03/16 09:25:46;;;;;;;14.18;5.68;;;6.30;74.40;;;;;;5017639;28;20095;-86
2021/03/16 09:28:14;;;;;;;5.82;2.80;;;6.20;75.20;;;;;;5036417;28;20030;-86
2021/03/16 09:30:44;;;;;;;10.70;2.90;;;6.20;74.80;;;;;;5016850;28;20075;-85
2021/03/16 09:33:12;;;;;;;11.18;3.20;;;6.10;74.80;;;;;;5020522;28;20396;-87
2021/03/16 09:35:38;;;;;;;7.60;3.03;;;6.20;74.90;;;;;;5028234;28;20047;-86
2021/03/16 09:38:08;;;;;;;7.60;3.30;;;6.20;74.70;;;;;;5037278;28;20032;-87
2021/03/16 09:40:43;;;;;;;10.75;3.00;;;6.10;74.60;;;;;;5032049;28;20029;-88
2021/03/16 09:43:37;;;;;;;8.63;3.05;;;6.10;74.90;;;;;;5018994;28;20105;-87
2021/03/16 09:46:05;;;;;;;8.05;2.92;;;6.10;75.20;;;;;;5013788;28;20128;-87
2021/03/16 09:48:31;;;;;;;8.00;3.13;;;6.20;74.40;;;;;;5052340;28;20059;-87
2021/03/16 09:51:19;;;;;;;11.23;3.20;;;6.10;74.20;;;;;;5017885;28;20415;-86
2021/03/16 09:53:55;;;;;;;6.95;2.70;;;6.10;74.40;;;;;;5037137;28;20025;-87
2021/03/16 09:56:36;;;;;;;7.85;3.13;;;6.20;74.60;;;;;;5019084;28;20084;-86
2021/03/16 09:59:02;;;;;;;12.13;3.40;;;6.20;74.40;;;;;;5020002;28;20116;-88
2021/03/16 10:01:28;;;;;;;9.82;3.20;;;6.30;73.90;;;;;;5018359;28;20025;-85
2021/03/16 10:03:59;;;;;;;10.10;2.72;;;6.20;73.00;;;;;;5010643;28;20034;-85
2021/03/16 10:06:33;;;;;;;5.88;2.53;;;6.10;73.50;;;;;;5002963;28;20022;-87
2021/03/16 10:08:59;;;;;;;9.13;3.80;;;6.00;73.90;;;;;;5005125;28;20049;-87
2021/03/16 10:11:32;;;;;;;13.70;4.13;;;6.00;73.20;;;;;;5015560;28;20120;-87
2021/03/16 10:13:57;;;;;;;11.80;4.20;;;5.90;73.80;;;;;;5025091;28;20056;-86
2021/03/16 10:16:28;;;;;;;9.43;3.00;;;5.80;73.90;;;;;;5043549;28;20026;-87
2021/03/16 10:18:54;;;;;;;7.82;3.00;;;5.80;73.90;;;;;;5010050;28;20030;-88
2021/03/16 10:21:31;;;;;;;7.70;3.38;;;5.70;74.20;;;;;;5001326;28;20086;-88
2021/03/16 10:24:01;;;;;;;11.20;3.20;;;5.70;74.30;;;;;;5000708;28;20022;-87
2021/03/16 10:26:27;;;;;;;12.20;3.35;;;5.70;73.80;;;;;;4999696;28;20022;-88
2021/03/16 10:28:53;;;;;;;11.43;3.75;;;5.60;74.00;;;;;;5000580;28;20128;-87
2021/03/16 10:31:20;;;;;;;7.68;4.25;;;5.60;74.30;;;;;;5000818;28;20029;-87
2021/03/16 10:33:50;;;;;;;12.93;4.15;;;5.60;74.60;;;;;;5022724;28;20037;-87
2021/03/16 10:36:17;;;;;;;10.25;3.33;;;5.60;74.80;;;;;;5006713;28;20071;-86
2021/03/16 10:38:48;;;;;;;10.23;4.00;;;5.60;75.20;;;;;;5018642;28;20026;-87
2021/03/16 10:41:13;;;;;;;12.27;3.90;;;5.60;75.30;;;;;;5041830;28;20056;-87
2021/03/16 10:43:39;;;;;;;66.70;32.65;;;5.70;75.30;;;;;;5029490;28;20025;-86
2021/03/16 10:46:04;;;;;;;14.25;4.82;;;5.80;75.60;;;;;;5112866;22;20045;-64
2021/03/16 10:48:30;;;;;;;10.75;3.70;;;5.90;75.60;;;;;;5032619;28;20029;-66
2021/03/16 10:50:56;;;;;;;8.30;3.05;;;5.90;75.30;;;;;;5025294;28;20385;-65
2021/03/16 10:53:22;;;;;;;9.77;2.67;;;6.00;75.10;;;;;;5028078;28;20025;-66
2021/03/16 10:55:48;;;;;;;8.93;2.88;;;6.10;74.90;;;;;;5012876;28;20064;-65
2021/03/16 10:58:13;;;;;;;10.68;2.80;;;6.10;74.50;;;;;;5026311;28;20408;-65
2021/03/16 11:00:39;;;;;;;9.38;2.92;;;6.10;74.30;;;;;;5031383;28;20094;-66
2021/03/16 11:03:05;;;;;;;9.85;2.50;;;6.10;73.80;;;;;;5032607;28;20021;-65
2021/03/16 11:05:32;;;;;;;6.63;2.53;;;6.20;73.80;;;;;;5032158;28;20025;-65
2021/03/16 11:07:58;;;;;;;13.75;3.22;;;6.30;73.60;;;;;;5032698;28;20378;-66
2021/03/16 11:10:23;;;;;;;9.43;2.80;;;6.40;73.60;;;;;;5032986;28;20020;-66
2021/03/16 11:12:49;;;;;;;10.15;2.78;;;6.50;73.70;;;;;;5033238;28;20124;-66
2021/03/16 11:15:15;;;;;;;10.38;3.17;;;6.60;73.30;;;;;;5024577;28;20035;-65
2021/03/16 11:17:41;;;;;;;6.10;2.55;;;6.70;73.40;;;;;;5021828;28;20105;-66
2021/03/16 11:20:07;;;;;;;35.75;18.25;;;6.80;73.10;;;;;;5014121;28;20108;-65
2021/03/16 11:22:33;;;;;;;10.52;3.47;;;7.00;72.90;;;;;;5013313;28;20045;-66
2021/03/16 11:24:59;;;;;;;10.82;3.08;;;7.10;72.80;;;;;;5018876;28;20082;-67
2021/03/16 11:27:25;;;;;;;11.70;2.97;;;7.20;72.10;;;;;;5036832;28;20365;-67
2021/03/16 11:29:54;;;;;;;11.80;3.47;;;7.10;72.00;;;;;;5037048;28;20025;-67
2021/03/16 11:32:20;;;;;;;6.55;3.13;;;7.00;71.50;;;;;;5037107;28;20029;-67
2021/03/16 11:34:46;;;;;;;9.07;3.45;;;6.90;71.40;;;;;;5035918;28;20045;-67
2021/03/16 11:37:12;;;;;;;9.95;4.68;;;6.80;72.00;;;;;;5037194;28;20032;-67
2021/03/16 11:39:38;;;;;;;6.60;3.45;;;6.70;71.90;;;;;;5022138;28;20033;-67
2021/03/16 11:42:04;;;;;;;5.65;3.58;;;6.70;72.20;;;;;;5017157;28;20473;-67
2021/03/16 11:44:30;;;;;;;7.65;3.05;;;6.60;71.60;;;;;;5038607;28;20017;-67
2021/03/16 11:46:55;;;;;;;13.88;4.03;;;6.60;72.10;;;;;;5028467;28;20350;-67
2021/03/16 11:49:21;;;;;;;14.25;4.03;;;6.60;71.90;;;;;;5035115;28;20389;-67
2021/03/16 11:51:48;;;;;;;8.93;4.35;;;6.70;72.00;;;;;;5036982;28;20111;-67
2021/03/16 11:54:13;;;;;;;18.13;7.18;;;6.80;71.60;;;;;;5015422;28;20120;-68
2021/03/16 11:56:39;;;;;;;15.20;7.70;;;6.80;71.50;;;;;;5019355;28;20113;-68
2021/03/16 11:59:05;;;;;;;10.13;5.10;;;6.90;71.60;;;;;;5021627;28;20104;-67
2021/03/16 12:01:30;;;;;;;9.98;4.38;;;7.00;72.00;;;;;;5016553;28;20026;-67
2021/03/16 12:03:56;;;;;;;11.65;4.63;;;7.10;71.70;;;;;;5030447;28;20028;-68
2021/03/16 12:06:22;;;;;;;8.95;3.28;;;7.10;70.60;;;;;;5054133;28;20358;-68
2021/03/16 12:08:48;;;;;;;8.90;3.28;;;7.10;71.10;;;;;;5036052;28;20037;-67
2021/03/16 12:11:13;;;;;;;11.70;3.70;;;7.20;71.00;;;;;;5036462;28;20069;-67
2021/03/16 12:13:40;;;;;;;10.82;3.58;;;7.30;71.00;;;;;;5035598;28;20453;-67
2021/03/16 12:16:06;;;;;;;7.38;3.15;;;7.40;70.80;;;;;;5035456;28;20032;-69
2021/03/16 12:18:32;;;;;;;7.00;3.17;;;7.30;70.00;;;;;;5027861;28;20381;-67
2021/03/16 12:20:58;;;;;;;7.30;3.75;;;7.20;70.30;;;;;;5036258;28;20021;-67
2021/03/16 12:23:25;;;;;;;8.50;4.40;;;7.10;70.30;;;;;;5035710;28;20017;-67
2021/03/16 12:25:53;;;;;;;13.88;3.75;;;6.90;70.40;;;;;;5035687;28;20032;-67
2021/03/16 12:28:19;;;;;;;10.20;4.53;;;6.70;71.20;;;;;;5035069;28;20139;-67
2021/03/16 12:30:45;;;;;;;6.68;3.88;;;6.60;71.70;;;;;;5053705;28;20033;-67
2021/03/16 12:33:11;;;;;;;9.07;3.83;;;6.60;72.20;;;;;;5035709;28;20036;-67
2021/03/16 12:35:36;;;;;;;11.45;4.05;;;6.50;72.50;;;;;;5034890;28;20507;-67
2021/03/16 12:38:03;;;;;;;14.70;3.78;;;6.50;72.60;;;;;;5035367;28;20071;-67
2021/03/16 12:40:29;;;;;;;8.30;3.85;;;6.50;72.60;;;;;;5035719;28;20442;-65
2021/03/16 12:42:55;;;;;;;8.27;3.45;;;6.50;72.20;;;;;;5019407;28;20112;-68
2021/03/16 12:45:21;;;;;;;13.77;3.95;;;6.40;72.40;;;;;;5034657;28;20124;-65
2021/03/16 12:47:46;;;;;;;11.32;4.10;;;6.40;72.50;;;;;;5033873;28;20064;-67
2021/03/16 12:50:12;;;;;;;9.15;4.10;;;6.50;72.40;;;;;;5035797;28;20079;-67
2021/03/16 12:52:38;;;;;;;11.30;4.18;;;6.50;72.30;;;;;;5035284;28;20052;-67
2021/03/16 12:55:04;;;;;;;11.60;3.75;;;6.60;72.30;;;;;;5033169;28;20029;-67